createdAt,value
2023-04-26T00:04:16.192Z,6.96
2023-04-26T00:09:19.714Z,6.94
2023-04-26T00:14:21.248Z,6.93
2023-04-26T00:19:24.342Z,6.93
2023-04-26T00:24:25.980Z,6.95
2023-04-26T00:29:27.557Z,6.92
2023-04-26T00:34:38.754Z,6.92
2023-04-26T00:39:40.293Z,6.86
2023-04-26T00:44:42.508Z,6.79
2023-04-26T00:49:44.417Z,6.76
2023-04-26T00:54:46.205Z,6.75
2023-04-26T00:59:48.770Z,6.73
2023-04-26T01:04:50.674Z,6.70
2023-04-26T01:09:52.692Z,6.66
2023-04-26T01:14:55.268Z,6.59
2023-04-26T01:19:57.222Z,6.53
2023-04-26T01:25:01.624Z,6.48
2023-04-26T01:30:03.742Z,6.41
2023-04-26T01:35:07.357Z,6.31
2023-04-26T01:40:09.839Z,6.23
2023-04-26T01:45:11.828Z,6.14
2023-04-26T01:50:13.394Z,6.07
2023-04-26T01:55:14.874Z,6.01
2023-04-26T02:00:20.118Z,5.90
2023-04-26T02:05:22.466Z,5.82
2023-04-26T02:10:24.224Z,5.76
2023-04-26T02:15:25.888Z,5.70
2023-04-26T02:20:27.389Z,5.66
2023-04-26T02:25:28.890Z,5.60
2023-04-26T02:30:37.160Z,5.49
2023-04-26T02:35:38.689Z,5.43
2023-04-26T02:40:40.463Z,5.41
2023-04-26T02:45:43.291Z,5.39
2023-04-26T02:50:45.096Z,5.42
2023-04-26T02:55:46.629Z,5.46
2023-04-26T03:00:49.840Z,5.53
2023-04-26T03:05:51.421Z,5.61
2023-04-26T03:10:52.919Z,5.67
2023-04-26T03:15:54.460Z,5.74
2023-04-26T03:20:55.953Z,5.84
2023-04-26T03:25:57.455Z,5.92
2023-04-26T03:30:59.038Z,5.99
2023-04-26T03:36:00.601Z,6.04
2023-04-26T03:41:02.076Z,6.03
2023-04-26T03:46:04.526Z,6.04
2023-04-26T03:51:06.622Z,6.04
2023-04-26T03:56:08.719Z,6.04
2023-04-26T04:01:10.272Z,6.02
2023-04-26T04:06:12.641Z,5.97
2023-04-26T04:11:14.134Z,5.95
2023-04-26T04:16:15.966Z,5.99
2023-04-26T04:21:17.562Z,5.98
2023-04-26T04:26:19.215Z,6.00
2023-04-26T04:31:21.817Z,6.10
2023-04-26T04:36:23.295Z,6.22
2023-04-26T04:41:24.965Z,6.38
2023-04-26T04:46:26.517Z,6.50
2023-04-26T04:51:28.132Z,6.50
2023-04-26T04:56:29.735Z,6.57
2023-04-26T05:01:35.107Z,6.72
2023-04-26T05:06:36.896Z,6.80
2023-04-26T05:11:38.434Z,6.98
2023-04-26T05:16:40.056Z,6.99
2023-04-26T05:21:42.053Z,6.94
2023-04-26T05:26:43.606Z,6.73
2023-04-26T05:31:45.628Z,6.66
2023-04-26T05:36:47.217Z,6.66
2023-04-26T05:41:48.733Z,6.68
2023-04-26T05:46:50.331Z,6.62
2023-04-26T05:51:52.403Z,6.53
2023-04-26T05:56:53.969Z,6.46
2023-04-26T06:01:55.566Z,6.44
2023-04-26T06:06:58.091Z,6.42
2023-04-26T06:11:59.897Z,6.52
2023-04-26T06:17:01.494Z,6.67
2023-04-26T06:22:03.052Z,6.56
2023-04-26T06:27:04.594Z,6.60
2023-04-26T06:32:06.498Z,6.66
2023-04-26T06:37:08.001Z,6.78
2023-04-26T06:42:09.570Z,6.94
2023-04-26T06:47:11.326Z,7.01
2023-04-26T06:52:12.845Z,7.16
2023-04-26T06:57:14.760Z,7.18
2023-04-26T07:02:16.369Z,7.32
2023-04-26T07:07:18.223Z,7.48
2023-04-26T07:12:19.749Z,7.63
2023-04-26T07:17:22.362Z,7.75
2023-04-26T07:22:24.222Z,7.74
2023-04-26T07:27:26.214Z,7.78
2023-04-26T07:32:27.748Z,7.84
2023-04-26T07:37:29.266Z,7.86
2023-04-26T07:42:31.436Z,7.95
2023-04-26T07:47:32.951Z,7.96
2023-04-26T07:52:34.670Z,8.01
2023-04-26T07:57:36.499Z,8.18
2023-04-26T08:07:44.861Z,8.73
2023-04-26T08:12:46.514Z,8.75
2023-04-26T08:17:48.418Z,8.90
2023-04-26T08:22:50.128Z,8.75
2023-04-26T08:27:52.514Z,8.70
2023-04-26T08:32:54.109Z,9.19
2023-04-26T08:37:55.795Z,9.33
2023-04-26T08:42:57.510Z,9.49
2023-04-26T08:48:05.701Z,9.19
2023-04-26T08:53:08.361Z,8.90
2023-04-26T08:58:11.807Z,8.81
2023-04-26T09:03:13.826Z,9.00
2023-04-26T09:08:19.300Z,8.97
2023-04-26T09:13:20.894Z,9.00
2023-04-26T09:18:23.758Z,8.87
2023-04-26T09:23:25.394Z,9.01
2023-04-26T09:28:27.800Z,9.19
2023-04-26T09:33:29.548Z,9.30
2023-04-26T09:38:42.923Z,9.44
2023-04-26T09:43:44.611Z,9.55
2023-04-26T09:49:00.376Z,9.47
2023-04-26T09:54:01.932Z,9.79
2023-04-26T09:59:05.748Z,9.86
2023-04-26T10:04:07.759Z,9.95
2023-04-26T10:09:09.611Z,9.88
2023-04-26T10:14:12.231Z,9.71
2023-04-26T10:19:14.293Z,9.49
2023-04-26T10:24:16.138Z,9.49
2023-04-26T10:29:18.579Z,9.52
2023-04-26T10:34:21.679Z,9.88
2023-04-26T10:39:24.914Z,9.99
2023-04-26T10:44:45.863Z,10.11
2023-04-26T10:49:48.260Z,10.10
2023-04-26T10:54:55.100Z,9.93
2023-04-26T11:00:20.358Z,10.08
2023-04-26T11:05:47.334Z,10.19
2023-04-26T11:10:56.730Z,10.08
2023-04-26T11:16:04.254Z,10.19
2023-04-26T11:21:07.229Z,10.38
2023-04-26T11:26:09.560Z,10.17
2023-04-26T11:31:11.733Z,10.26
2023-04-26T11:36:14.397Z,10.35
2023-04-26T11:41:16.006Z,10.22
2023-04-26T11:46:21.584Z,10.17
2023-04-26T11:51:24.107Z,10.46
2023-04-26T11:56:25.589Z,10.80
2023-04-26T12:01:28.778Z,10.94
2023-04-26T12:06:46.989Z,10.78
2023-04-26T12:11:53.526Z,10.63
2023-04-26T12:16:55.143Z,10.53
2023-04-26T12:21:57.568Z,10.39
2023-04-26T12:27:00.262Z,10.09
2023-04-26T12:32:04.505Z,9.93
2023-04-26T12:37:06.398Z,9.83
2023-04-26T12:42:08.003Z,9.78
2023-04-26T12:47:09.562Z,9.62
2023-04-26T12:52:11.128Z,9.61
2023-04-26T12:57:12.907Z,9.79
2023-04-26T13:02:14.449Z,9.96
2023-04-26T13:07:16.371Z,9.79
2023-04-26T13:12:17.998Z,9.74
2023-04-26T13:17:19.542Z,9.82
2023-04-26T13:22:21.591Z,10.07
2023-04-26T13:27:23.123Z,10.01
2023-04-26T13:32:24.676Z,10.02
2023-04-26T13:37:26.990Z,9.97
2023-04-26T13:42:28.593Z,10.00
2023-04-26T13:47:31.310Z,10.15
2023-04-26T13:52:33.459Z,10.30
2023-04-26T13:57:34.967Z,10.25
2023-04-26T14:02:36.675Z,9.99
2023-04-26T14:07:40.569Z,9.75
2023-04-26T14:12:42.326Z,9.60
2023-04-26T14:17:46.797Z,9.55
2023-04-26T14:22:50.223Z,9.50
2023-04-26T14:27:53.501Z,9.53
2023-04-26T14:32:55.264Z,9.68
2023-04-26T14:37:56.942Z,9.65
2023-04-26T14:42:58.484Z,9.62
2023-04-26T14:48:01.870Z,9.59
2023-04-26T14:53:03.444Z,9.61
2023-04-26T14:58:05.730Z,9.64
2023-04-26T15:03:07.557Z,9.66
2023-04-26T15:08:09.365Z,9.48
2023-04-26T15:13:10.950Z,9.35
2023-04-26T15:18:12.446Z,9.29
2023-04-26T15:23:14.090Z,9.27
2023-04-26T15:28:17.650Z,9.21
2023-04-26T15:33:19.737Z,9.21
2023-04-26T15:38:22.113Z,9.21
2023-04-26T15:43:23.701Z,8.98
2023-04-26T15:48:26.343Z,8.85
2023-04-26T15:53:27.893Z,8.75
2023-04-26T15:58:29.663Z,8.73
2023-04-26T16:03:31.486Z,8.71
2023-04-26T16:13:40.645Z,8.40
2023-04-26T16:18:43.836Z,8.26
2023-04-26T16:23:45.652Z,8.15
2023-04-26T16:28:47.319Z,8.07
2023-04-26T16:33:48.978Z,8.00
2023-04-26T16:38:50.984Z,8.01
2023-04-26T16:43:53.218Z,8.01
2023-04-26T16:48:54.802Z,8.03
2023-04-26T16:53:56.331Z,8.03
2023-04-26T16:58:57.876Z,7.98
2023-04-26T17:03:59.493Z,7.92
2023-04-26T17:09:01.295Z,7.84
2023-04-26T17:14:04.387Z,7.79
2023-04-26T17:19:06.860Z,7.79
2023-04-26T17:24:08.538Z,7.77
2023-04-26T17:29:10.891Z,7.75
2023-04-26T17:34:12.417Z,7.73
2023-04-26T17:39:13.890Z,7.70
2023-04-26T17:44:15.373Z,7.65
2023-04-26T17:49:16.848Z,7.61
2023-04-26T17:54:18.452Z,7.59
2023-04-26T17:59:20.018Z,7.55
2023-04-26T18:04:21.866Z,7.52
2023-04-26T18:09:23.542Z,7.47
2023-04-26T18:14:26.536Z,7.42
2023-04-26T18:19:28.045Z,7.36
2023-04-26T18:24:29.948Z,7.34
2023-04-26T18:29:32.147Z,7.31
2023-04-26T18:34:33.636Z,7.27
2023-04-26T18:39:35.223Z,7.24
2023-04-26T18:44:36.734Z,7.20
2023-04-26T18:49:38.294Z,7.16
2023-04-26T18:54:39.925Z,7.12
2023-04-26T18:59:41.721Z,7.11
2023-04-26T19:04:43.451Z,7.07
2023-04-26T19:09:53.686Z,7.02
2023-04-26T19:14:56.855Z,6.99
2023-04-26T19:19:58.673Z,6.95
2023-04-26T19:25:01.130Z,6.88
2023-04-26T19:30:02.803Z,6.85
2023-04-26T19:35:06.156Z,6.80
2023-04-26T19:40:10.099Z,6.71
2023-04-26T19:45:11.773Z,6.62
2023-04-26T19:50:13.435Z,6.56
2023-04-26T19:55:15.180Z,6.46
2023-04-26T20:00:16.929Z,6.36
2023-04-26T20:05:18.553Z,6.26
2023-04-26T20:10:23.906Z,6.13
2023-04-26T20:15:26.532Z,6.02
2023-04-26T20:20:28.114Z,5.92
2023-04-26T20:25:29.590Z,5.85
2023-04-26T20:30:40.727Z,5.77
2023-04-26T20:35:45.404Z,5.68
2023-04-26T20:40:48.715Z,5.62
2023-04-26T20:45:50.888Z,5.56
2023-04-26T20:50:58.264Z,5.52
2023-04-26T20:55:59.793Z,5.44
2023-04-26T21:01:02.828Z,5.36
2023-04-26T21:06:06.204Z,5.24
2023-04-26T21:11:07.743Z,5.13
2023-04-26T21:16:09.310Z,5.01
2023-04-26T21:21:11.176Z,4.90
2023-04-26T21:26:13.385Z,4.80
2023-04-26T21:31:14.975Z,4.71
2023-04-26T21:36:16.734Z,4.64
2023-04-26T21:41:18.262Z,4.57
2023-04-26T21:46:19.865Z,4.48
2023-04-26T21:51:21.385Z,4.40
2023-04-26T21:56:24.122Z,4.33
2023-04-26T22:01:25.741Z,4.25
2023-04-26T22:06:27.346Z,4.16
2023-04-26T22:11:28.841Z,4.09
2023-04-26T22:16:30.462Z,4.02
2023-04-26T22:21:32.374Z,3.95
2023-04-26T22:26:34.072Z,3.90
2023-04-26T22:31:35.660Z,3.84
2023-04-26T22:36:37.280Z,3.77
2023-04-26T22:41:38.784Z,3.72
2023-04-26T22:46:40.660Z,3.66
2023-04-26T22:51:45.929Z,3.60
2023-04-26T22:56:52.663Z,3.56
2023-04-26T23:01:54.167Z,3.52
2023-04-26T23:06:55.911Z,3.49
2023-04-26T23:11:59.502Z,3.48
2023-04-26T23:17:01.118Z,3.44
2023-04-26T23:22:02.666Z,3.39
2023-04-26T23:27:05.041Z,3.34
2023-04-26T23:32:06.709Z,3.28
2023-04-26T23:37:08.425Z,3.22
2023-04-26T23:42:10.185Z,3.18
2023-04-26T23:47:11.681Z,3.13
2023-04-26T23:52:13.235Z,3.07
2023-04-26T23:57:14.713Z,3.04
